Time;durP1;ratioP1;P1;durP2;ratioP2;P2;SDS_P1;SDS_P2;PMS_P1;PMS_P2;Temp;Humidity;BMP_temperature;BMP_pressure;BME280_temperature;BME280_humidity;BME280_pressure;Samples;Min_cycle;Max_cycle;Signal;HPM_P1;HPM_P2
2023/05/19 00:00:37;;;;;;;;;;;;;;;19.26;56.63;102493.47;1251238;23;594;-67
2023/05/19 00:01:28;;;;;;;;;;;;;;;19.28;56.02;102502.31;1250937;23;676;-66
2023/05/19 00:02:19;;;;;;;;;;;;;;;19.26;56.50;102489.91;1251101;23;614;-67
2023/05/19 00:03:11;;;;;;;;;;;;;;;19.27;56.65;102492.50;1247535;23;618;-67
2023/05/19 00:04:03;;;;;;;;;;;;;;;19.27;56.60;102491.63;1249565;23;689;-67
2023/05/19 00:04:54;;;;;;;;;;;;;;;19.22;56.60;102491.97;1249833;23;646;-67
2023/05/19 00:05:44;;;;;;;;;;;;;;;19.23;56.59;102488.28;1248888;23;665;-67
2023/05/19 00:06:35;;;;;;;;;;;;;;;19.24;56.76;102487.31;1249381;23;615;-67
2023/05/19 00:07:25;;;;;;;;;;;;;;;19.25;56.21;102485.47;1250259;23;594;-67
2023/05/19 00:08:16;;;;;;;;;;;;;;;19.24;56.63;102490.00;1247250;23;724;-67
2023/05/19 00:09:06;;;;;;;;;;;;;;;19.21;56.83;102482.13;1246729;23;573;-67
2023/05/19 00:09:57;;;;;;;;;;;;;;;19.22;56.70;102483.84;1247146;23;643;-67
2023/05/19 00:10:47;;;;;;;;;;;;;;;19.20;56.45;102488.50;1246591;23;621;-67
2023/05/19 00:11:37;;;;;;;;;;;;;;;19.18;56.54;102485.06;1251021;23;676;-67
2023/05/19 00:12:28;;;;;;;;;;;;;;;19.19;57.20;102480.50;1247215;23;647;-67
2023/05/19 00:13:18;;;;;;;;;;;;;;;19.12;56.53;102481.97;1247302;23;721;-66
2023/05/19 00:14:09;;;;;;;;;;;;;;;19.12;57.13;102481.97;1247668;23;595;-67
2023/05/19 00:14:59;;;;;;;;;;;;;;;19.08;56.92;102482.19;1251020;23;619;-67
2023/05/19 00:15:50;;;;;;;;;;;;;;;19.00;57.72;102481.03;1247153;23;631;-66
2023/05/19 00:16:41;;;;;;;;;;;;;;;19.01;57.56;102478.22;1250994;23;551;-66
2023/05/19 00:17:33;;;;;;;;;;;;;;;19.03;57.76;102476.25;1251091;23;614;-66
2023/05/19 00:18:23;;;;;;;;;;;;;;;19.10;56.66;102475.81;1246820;23;626;-66
2023/05/19 00:19:15;;;;;;;;;;;;;;;19.11;56.99;102481.09;1250708;23;618;-67
2023/05/19 00:20:06;;;;;;;;;;;;;;;19.14;56.84;102477.31;1246965;23;685;-66
2023/05/19 00:20:56;;;;;;;;;;;;;;;19.16;56.53;102469.97;1247265;23;783;-66
2023/05/19 00:21:47;;;;;;;;;;;;;;;19.12;56.75;102473.88;1247460;23;634;-66
2023/05/19 00:22:37;;;;;;;;;;;;;;;19.13;57.11;102476.47;1247472;23;611;-66
2023/05/19 00:23:28;;;;;;;;;;;;;;;19.14;56.75;102472.78;1250841;23;704;-66
2023/05/19 00:24:18;;;;;;;;;;;;;;;19.14;56.64;102480.03;1251103;23;653;-66
2023/05/19 00:25:08;;;;;;;;;;;;;;;19.13;57.06;102481.00;1249110;23;657;-66
2023/05/19 00:25:59;;;;;;;;;;;;;;;19.10;57.36;102473.97;1250804;23;670;-67
2023/05/19 00:26:49;;;;;;;;;;;;;;;19.14;57.27;102477.31;1250994;23;654;-67
2023/05/19 00:27:40;;;;;;;;;;;;;;;19.12;57.04;102473.88;1248314;23;618;-66
2023/05/19 00:28:30;;;;;;;;;;;;;;;19.09;56.89;102469.56;1249288;23;618;-68
2023/05/19 00:29:21;;;;;;;;;;;;;;;19.09;57.17;102469.56;1250662;23;661;-67
2023/05/19 00:30:11;;;;;;;;;;;;;;;19.08;57.18;102471.38;1251084;23;579;-66
2023/05/19 00:31:02;;;;;;;;;;;;;;;19.05;57.04;102465.34;1250854;23;654;-66
2023/05/19 00:31:52;;;;;;;;;;;;;;;19.06;57.03;102473.34;1251300;23;634;-66
2023/05/19 00:32:42;;;;;;;;;;;;;;;19.07;57.34;102475.06;1250909;23;785;-67
2023/05/19 00:33:33;;;;;;;;;;;;;;;19.05;57.32;102470.75;1250975;23;673;-67
2023/05/19 00:34:23;;;;;;;;;;;;;;;19.07;57.33;102474.19;1250905;23;614;-67
2023/05/19 00:35:14;;;;;;;;;;;;;;;19.08;57.52;102479.50;1247076;23;695;-67
2023/05/19 00:36:05;;;;;;;;;;;;;;;19.08;57.03;102474.09;1247094;23;643;-67
2023/05/19 00:36:55;;;;;;;;;;;;;;;19.07;57.17;102472.38;1251049;23;681;-67
2023/05/19 00:37:45;;;;;;;;;;;;;;;19.08;56.70;102474.09;1251030;23;633;-67
2023/05/19 00:38:36;;;;;;;;;;;;;;;19.10;57.24;102465.00;1250826;23;633;-66
2023/05/19 00:39:26;;;;;;;;;;;;;;;19.06;56.97;102473.34;1247226;23;659;-67
2023/05/19 00:40:17;;;;;;;;;;;;;;;19.07;56.81;102472.38;1247455;23;694;-67
2023/05/19 00:41:07;;;;;;;;;;;;;;;19.04;57.16;102464.47;1249271;23;959;-66
2023/05/19 00:41:58;;;;;;;;;;;;;;;19.07;57.13;102472.38;1250837;23;642;-67
2023/05/19 00:42:48;;;;;;;;;;;;;;;19.05;57.29;102474.31;1251101;23;634;-66
2023/05/19 00:43:38;;;;;;;;;;;;;;;19.06;57.27;102467.06;1251058;23;614;-67
2023/05/19 00:44:29;;;;;;;;;;;;;;;19.05;57.27;102468.03;1250726;23;1049;-67
2023/05/19 00:45:19;;;;;;;;;;;;;;;19.02;57.50;102471.84;1246746;23;635;-66
2023/05/19 00:46:10;;;;;;;;;;;;;;;19.03;56.64;102468.16;1247023;23;655;-67
2023/05/19 00:47:00;;;;;;;;;;;;;;;19.03;57.24;102470.88;1251060;23;1885;-66
2023/05/19 00:47:50;;;;;;;;;;;;;;;18.98;56.98;102467.66;1250892;23;606;-66
2023/05/19 00:48:43;;;;;;;;;;;;;;;19.00;57.68;102472.91;1250741;23;617;-66
2023/05/19 00:49:34;;;;;;;;;;;;;;;19.00;57.35;102471.09;1249827;23;1134;-66
2023/05/19 00:50:26;;;;;;;;;;;;;;;18.97;57.03;102465.06;1248143;23;638;-66
2023/05/19 00:51:16;;;;;;;;;;;;;;;18.96;57.56;102469.63;1246590;23;659;-66
2023/05/19 00:52:07;;;;;;;;;;;;;;;18.95;57.37;102467.03;1247713;23;646;-66
2023/05/19 00:52:57;;;;;;;;;;;;;;;18.94;57.22;102470.69;1247158;23;650;-66
2023/05/19 00:53:49;;;;;;;;;;;;;;;18.95;57.38;102467.88;1247360;23;670;-66
2023/05/19 00:54:40;;;;;;;;;;;;;;;18.94;57.01;102460.75;1247803;23;623;-66
2023/05/19 00:55:30;;;;;;;;;;;;;;;18.95;57.73;102465.19;1251015;23;957;-66
2023/05/19 00:56:21;;;;;;;;;;;;;;;18.94;57.48;102466.16;1251171;23;641;-66
2023/05/19 00:57:11;;;;;;;;;;;;;;;18.93;57.27;102464.44;1247285;23;577;-67
2023/05/19 00:58:02;;;;;;;;;;;;;;;18.92;57.82;102464.53;1251290;23;653;-66
2023/05/19 00:58:52;;;;;;;;;;;;;;;18.92;57.41;102462.72;1251483;23;630;-66
2023/05/19 00:59:43;;;;;;;;;;;;;;;18.93;57.16;102469.84;1251210;23;672;-66
2023/05/19 01:00:33;;;;;;;;;;;;;;;18.92;57.77;102468.09;1251507;23;708;-66
2023/05/19 01:01:25;;;;;;;;;;;;;;;18.88;57.76;102472.00;1251352;23;598;-66
2023/05/19 01:02:16;;;;;;;;;;;;;;;18.88;57.90;102461.19;1251198;23;660;-66
2023/05/19 01:03:09;;;;;;;;;;;;;;;18.89;57.58;102470.16;1247541;23;606;-67
2023/05/19 01:04:00;;;;;;;;;;;;;;;18.89;57.82;102473.72;1251130;23;621;-66
2023/05/19 01:04:52;;;;;;;;;;;;;;;18.84;57.43;102469.63;1247500;23;623;-66
2023/05/19 01:05:46;;;;;;;;;;;;;;;18.84;57.98;102472.34;1250848;23;602;-66
2023/05/19 01:06:37;;;;;;;;;;;;;;;18.84;57.59;102465.09;1251267;23;641;-66
2023/05/19 01:07:27;;;;;;;;;;;;;;;18.83;58.11;102471.47;1251193;23;650;-66
2023/05/19 01:08:18;;;;;;;;;;;;;;;18.83;57.67;102462.50;1251161;23;626;-66
2023/05/19 01:09:08;;;;;;;;;;;;;;;18.84;57.74;102466.94;1251348;23;635;-66
2023/05/19 01:09:59;;;;;;;;;;;;;;;18.80;57.28;102474.44;1247271;23;622;-67
2023/05/19 01:10:49;;;;;;;;;;;;;;;18.82;57.78;102468.88;1251503;23;559;-67
2023/05/19 01:11:40;;;;;;;;;;;;;;;18.82;57.56;102460.78;1251261;23;666;-67
2023/05/19 01:12:30;;;;;;;;;;;;;;;18.82;58.29;102463.47;1251461;23;733;-67
2023/05/19 01:13:20;;;;;;;;;;;;;;;18.82;58.31;102466.19;1251176;23;650;-67
2023/05/19 01:14:11;;;;;;;;;;;;;;;18.81;57.88;102462.63;1251185;23;656;-67
2023/05/19 01:15:01;;;;;;;;;;;;;;;18.82;57.57;102464.34;1251099;23;594;-67
2023/05/19 01:15:52;;;;;;;;;;;;;;;18.83;58.02;102462.50;1251330;23;688;-67
2023/05/19 01:16:42;;;;;;;;;;;;;;;18.85;57.66;102456.03;1251435;23;633;-67
2023/05/19 01:17:33;;;;;;;;;;;;;;;18.82;57.41;102461.66;1251315;23;672;-67
2023/05/19 01:18:23;;;;;;;;;;;;;;;18.81;58.02;102459.91;1251569;23;653;-67
2023/05/19 01:19:14;;;;;;;;;;;;;;;18.80;57.71;102458.22;1249721;23;649;-67
2023/05/19 01:20:05;;;;;;;;;;;;;;;18.79;57.93;102461.91;1250751;23;648;-67
2023/05/19 01:20:56;;;;;;;;;;;;;;;18.79;58.01;102459.19;1251310;23;625;-67
2023/05/19 01:21:47;;;;;;;;;;;;;;;18.77;57.74;102453.03;1251073;23;668;-67
2023/05/19 01:22:37;;;;;;;;;;;;;;;18.76;57.34;102445.91;1251547;23;791;-67
2023/05/19 01:23:28;;;;;;;;;;;;;;;18.79;58.08;102453.78;1251286;23;621;-67
2023/05/19 01:24:21;;;;;;;;;;;;;;;18.76;58.17;102451.31;1251359;23;605;-68
2023/05/19 01:25:12;;;;;;;;;;;;;;;18.76;58.38;102456.72;1251232;23;640;-67
2023/05/19 01:26:02;;;;;;;;;;;;;;;18.75;58.09;102455.00;1247019;23;646;-67
2023/05/19 01:26:52;;;;;;;;;;;;;;;18.76;58.76;102451.31;1251318;23;657;-67
2023/05/19 01:27:43;;;;;;;;;;;;;;;18.73;57.95;102455.09;1251022;23;665;-67
2023/05/19 01:28:33;;;;;;;;;;;;;;;18.74;58.18;102455.97;1247732;23;651;-67
2023/05/19 01:29:24;;;;;;;;;;;;;;;18.76;57.32;102451.31;1247772;23;635;-67
2023/05/19 01:30:14;;;;;;;;;;;;;;;18.75;58.36;102446.88;1247755;23;666;-68
2023/05/19 01:31:06;;;;;;;;;;;;;;;18.75;58.09;102446.88;1247364;23;631;-67
2023/05/19 01:31:56;;;;;;;;;;;;;;;18.76;57.83;102445.06;1251356;23;607;-66
2023/05/19 01:32:47;;;;;;;;;;;;;;;18.73;57.56;102446.13;1251158;23;676;-67
2023/05/19 01:33:37;;;;;;;;;;;;;;;18.76;57.31;102447.75;1249604;23;728;-67
2023/05/19 01:34:27;;;;;;;;;;;;;;;18.75;58.08;102437.94;1250796;23;621;-67
2023/05/19 01:35:18;;;;;;;;;;;;;;;18.75;57.94;102438.78;1247386;23;662;-67
2023/05/19 01:36:08;;;;;;;;;;;;;;;18.75;57.89;102444.19;1251267;23;618;-67
2023/05/19 01:36:59;;;;;;;;;;;;;;;18.72;58.46;102445.28;1247767;23;662;-67
2023/05/19 01:37:49;;;;;;;;;;;;;;;18.71;57.63;102448.94;1248307;23;717;-67
2023/05/19 01:38:39;;;;;;;;;;;;;;;18.68;57.87;102440.19;1249704;23;631;-67
2023/05/19 01:39:30;;;;;;;;;;;;;;;18.70;57.80;102443.66;1250984;23;669;-67
2023/05/19 01:40:20;;;;;;;;;;;;;;;18.70;58.26;102440.97;1251127;23;672;-67
2023/05/19 01:41:11;;;;;;;;;;;;;;;18.70;57.45;102440.97;1251112;23;626;-67
2023/05/19 01:42:01;;;;;;;;;;;;;;;18.70;57.67;102438.25;1251322;23;610;-67
2023/05/19 01:42:52;;;;;;;;;;;;;;;18.69;57.73;102439.22;1251282;23;614;-67
2023/05/19 01:43:42;;;;;;;;;;;;;;;18.70;58.39;102435.56;1251370;23;629;-67
2023/05/19 01:44:32;;;;;;;;;;;;;;;18.70;58.18;102441.81;1251257;23;606;-67
2023/05/19 01:45:23;;;;;;;;;;;;;;;18.70;57.67;102438.25;1247248;23;627;-67
2023/05/19 01:46:13;;;;;;;;;;;;;;;18.67;58.28;102433.06;1251388;23;654;-68
2023/05/19 01:47:04;;;;;;;;;;;;;;;18.69;57.63;102439.22;1250966;23;1997;-67
2023/05/19 01:47:54;;;;;;;;;;;;;;;18.67;57.66;102435.78;1251423;23;665;-66
2023/05/19 01:48:45;;;;;;;;;;;;;;;18.68;58.14;102432.09;1251304;23;606;-67
2023/05/19 01:49:35;;;;;;;;;;;;;;;18.66;58.45;102434.06;1251527;23;1277;-67
2023/05/19 01:50:25;;;;;;;;;;;;;;;18.65;57.95;102433.19;1249464;23;611;-67
2023/05/19 01:51:16;;;;;;;;;;;;;;;18.66;58.18;102434.06;1249739;23;639;-67
2023/05/19 01:52:06;;;;;;;;;;;;;;;18.66;57.83;102423.25;1249481;23;611;-66
2023/05/19 01:52:57;;;;;;;;;;;;;;;18.66;58.07;102428.66;1249468;23;677;-66
2023/05/19 01:53:47;;;;;;;;;;;;;;;18.64;58.51;102430.59;1249454;23;638;-67
2023/05/19 01:54:37;;;;;;;;;;;;;;;18.65;58.10;102437.72;1249566;23;651;-66
2023/05/19 01:55:28;;;;;;;;;;;;;;;18.63;57.84;102426.19;1249385;23;638;-67
2023/05/19 01:56:18;;;;;;;;;;;;;;;18.63;58.04;102432.44;1249417;23;611;-66
2023/05/19 01:57:10;;;;;;;;;;;;;;;18.64;58.82;102427.91;1249466;23;659;-67
2023/05/19 01:58:00;;;;;;;;;;;;;;;18.64;57.83;102426.06;1248687;23;615;-67
2023/05/19 01:58:51;;;;;;;;;;;;;;;18.63;58.39;102429.72;1249594;23;723;-67
2023/05/19 01:59:42;;;;;;;;;;;;;;;18.62;57.37;102432.56;1249637;23;658;-68
2023/05/19 02:00:32;;;;;;;;;;;;;;;18.62;58.07;102432.56;1242342;23;615;-68
2023/05/19 02:01:23;;;;;;;;;;;;;;;18.61;58.58;102429.00;1242504;23;639;-68
2023/05/19 02:02:13;;;;;;;;;;;;;;;18.62;58.59;102433.44;1248557;23;674;-68
2023/05/19 02:03:03;;;;;;;;;;;;;;;18.61;58.15;102431.72;1249508;23;619;-68
2023/05/19 02:03:54;;;;;;;;;;;;;;;18.58;58.12;102437.31;1249572;23;616;-67
2023/05/19 02:04:44;;;;;;;;;;;;;;;18.59;58.54;102427.41;1249706;23;658;-68
2023/05/19 02:05:35;;;;;;;;;;;;;;;18.60;58.00;102432.69;1249486;23;650;-68
2023/05/19 02:06:25;;;;;;;;;;;;;;;18.60;58.94;102429.13;1249582;23;602;-68
2023/05/19 02:07:16;;;;;;;;;;;;;;;18.61;58.84;102428.16;1249353;23;1909;-68
2023/05/19 02:08:06;;;;;;;;;;;;;;;18.60;57.93;102439.94;1249497;23;708;-68
2023/05/19 02:08:57;;;;;;;;;;;;;;;18.60;57.96;102424.59;1249465;23;640;-68
2023/05/19 02:09:48;;;;;;;;;;;;;;;18.58;57.60;102436.44;1248620;23;603;-68
2023/05/19 02:10:38;;;;;;;;;;;;;;;18.58;58.50;102436.44;1249485;23;639;-67
2023/05/19 02:11:29;;;;;;;;;;;;;;;18.60;57.98;102442.63;1249566;23;659;-68
2023/05/19 02:12:19;;;;;;;;;;;;;;;18.60;58.02;102429.13;1249565;23;591;-68
2023/05/19 02:13:10;;;;;;;;;;;;;;;18.58;57.74;102431.03;1249571;23;848;-67
2023/05/19 02:14:00;;;;;;;;;;;;;;;18.59;58.39;102435.50;1249441;23;627;-67
2023/05/19 02:14:50;;;;;;;;;;;;;;;18.56;58.08;102432.97;1249591;23;595;-68
2023/05/19 02:15:42;;;;;;;;;;;;;;;18.56;58.43;102428.44;1249211;23;686;-67
2023/05/19 02:16:32;;;;;;;;;;;;;;;18.55;57.53;102432.13;1248795;23;614;-67
2023/05/19 02:17:23;;;;;;;;;;;;;;;18.56;58.15;102435.69;1249451;23;654;-67
2023/05/19 02:18:16;;;;;;;;;;;;;;;18.55;58.22;102432.13;1249084;23;606;-67
2023/05/19 02:19:07;;;;;;;;;;;;;;;18.56;58.04;102432.97;1248535;23;642;-67
2023/05/19 02:19:57;;;;;;;;;;;;;;;18.55;58.20;102434.81;1249321;23;646;-68
2023/05/19 02:20:48;;;;;;;;;;;;;;;18.54;58.78;102432.22;1249515;23;599;-67
2023/05/19 02:21:38;;;;;;;;;;;;;;;18.53;58.35;102430.50;1249507;23;638;-68
2023/05/19 02:22:28;;;;;;;;;;;;;;;18.54;57.83;102426.81;1249613;23;615;-68
2023/05/19 02:23:19;;;;;;;;;;;;;;;18.53;57.77;102431.38;1249584;23;641;-67
2023/05/19 02:24:09;;;;;;;;;;;;;;;18.53;57.93;102428.66;1249453;23;643;-68
2023/05/19 02:25:00;;;;;;;;;;;;;;;18.51;58.30;102429.75;1249454;23;665;-68
2023/05/19 02:25:50;;;;;;;;;;;;;;;18.49;58.59;102421.75;1249389;23;693;-68
2023/05/19 02:26:41;;;;;;;;;;;;;;;18.52;58.46;102426.06;1249552;23;646;-68
2023/05/19 02:27:31;;;;;;;;;;;;;;;18.52;57.42;102420.69;1251902;23;657;-67
2023/05/19 02:28:21;;;;;;;;;;;;;;;18.50;58.13;102425.31;1249417;23;635;-68
2023/05/19 02:29:12;;;;;;;;;;;;;;;18.49;58.31;102427.16;1249535;23;681;-67
2023/05/19 02:30:02;;;;;;;;;;;;;;;18.49;58.17;102420.91;1249434;23;654;-68
2023/05/19 02:30:53;;;;;;;;;;;;;;;18.50;58.20;102428.88;1249492;23;663;-68
2023/05/19 02:31:43;;;;;;;;;;;;;;;18.48;58.58;102425.44;1248569;23;626;-68
2023/05/19 02:32:35;;;;;;;;;;;;;;;18.45;58.31;102424.81;1248981;23;686;-68
2023/05/19 02:33:26;;;;;;;;;;;;;;;18.46;57.95;102421.97;1248377;23;749;-68
2023/05/19 02:34:16;;;;;;;;;;;;;;;18.43;58.19;102422.22;1248538;23;635;-68
2023/05/19 02:35:07;;;;;;;;;;;;;;;18.46;58.18;102416.56;1251880;23;598;-68
2023/05/19 02:35:57;;;;;;;;;;;;;;;18.45;58.67;102430.22;1249398;23;760;-67
2023/05/19 02:36:51;;;;;;;;;;;;;;;18.46;58.03;102415.72;1249265;23;666;-68
2023/05/19 02:37:41;;;;;;;;;;;;;;;18.46;57.97;102415.72;1248735;23;554;-68
2023/05/19 02:38:32;;;;;;;;;;;;;;;18.44;57.82;102421.25;1249550;23;654;-67
2023/05/19 02:39:22;;;;;;;;;;;;;;;18.45;57.78;102414.03;1249397;23;670;-68
2023/05/19 02:40:13;;;;;;;;;;;;;;;18.45;58.20;102408.63;1249347;23;627;-68
2023/05/19 02:41:03;;;;;;;;;;;;;;;18.47;58.54;102414.75;1248417;23;725;-68
2023/05/19 02:41:54;;;;;;;;;;;;;;;18.46;58.11;102410.31;1249416;23;635;-68
2023/05/19 02:42:44;;;;;;;;;;;;;;;18.46;58.10;102404.91;1247877;23;643;-68
2023/05/19 02:43:35;;;;;;;;;;;;;;;18.43;57.54;102413.25;1249520;23;651;-68
2023/05/19 02:44:25;;;;;;;;;;;;;;;18.42;58.68;102408.84;1243224;23;634;-68
2023/05/19 02:45:16;;;;;;;;;;;;;;;18.42;58.60;102409.69;1242510;23;674;-68
2023/05/19 02:46:06;;;;;;;;;;;;;;;18.43;57.77;102414.13;1248180;23;651;-68
2023/05/19 02:46:57;;;;;;;;;;;;;;;18.42;58.06;102404.31;1248842;23;630;-68
2023/05/19 02:47:47;;;;;;;;;;;;;;;18.41;58.20;102417.91;1249508;23;634;-68
2023/05/19 02:48:37;;;;;;;;;;;;;;;18.42;58.35;102415.09;1243452;23;618;-68
2023/05/19 02:49:34;;;;;;;;;;;;;;;18.42;58.37;102406.13;1247547;23;1114;-68
2023/05/19 02:50:25;;;;;;;;;;;;;;;18.40;58.02;102408.94;1247986;23;650;-68
2023/05/19 02:51:15;;;;;;;;;;;;;;;18.39;57.68;102410.78;1250897;23;729;-68
2023/05/19 02:52:05;;;;;;;;;;;;;;;18.38;58.59;102417.16;1251163;23;637;-68
2023/05/19 02:52:56;;;;;;;;;;;;;;;18.38;58.42;102410.91;1251012;23;625;-68
2023/05/19 02:53:46;;;;;;;;;;;;;;;18.38;57.58;102413.59;1251248;23;629;-68
2023/05/19 02:54:37;;;;;;;;;;;;;;;18.37;58.11;102412.72;1251224;23;689;-67
2023/05/19 02:55:28;;;;;;;;;;;;;;;18.37;57.79;102411.88;1251194;23;661;-68
2023/05/19 02:56:20;;;;;;;;;;;;;;;18.33;57.52;102403.13;1246943;23;604;-68
2023/05/19 02:57:10;;;;;;;;;;;;;;;18.33;58.07;102408.53;1250997;23;622;-68
2023/05/19 02:58:01;;;;;;;;;;;;;;;18.35;58.47;102405.72;1251149;23;618;-68
2023/05/19 02:58:51;;;;;;;;;;;;;;;18.34;58.19;102406.69;1251020;23;686;-68
2023/05/19 02:59:42;;;;;;;;;;;;;;;18.33;58.57;102405.81;1247028;23;665;-68
2023/05/19 03:00:32;;;;;;;;;;;;;;;18.35;58.55;102406.56;1250973;23;677;-68
2023/05/19 03:01:23;;;;;;;;;;;;;;;18.35;57.66;102398.47;1246214;23;619;-68
2023/05/19 03:02:13;;;;;;;;;;;;;;;18.33;58.52;102403.13;1250969;23;693;-68
2023/05/19 03:03:03;;;;;;;;;;;;;;;18.33;58.64;102399.56;1251108;23;630;-67
2023/05/19 03:03:54;;;;;;;;;;;;;;;18.31;58.77;102402.38;1250951;23;641;-67
2023/05/19 03:04:44;;;;;;;;;;;;;;;18.33;58.76;102399.56;1251266;23;752;-67
2023/05/19 03:05:35;;;;;;;;;;;;;;;18.32;58.79;102404.09;1250924;23;649;-66
2023/05/19 03:06:26;;;;;;;;;;;;;;;18.32;58.00;102401.41;1246895;23;643;-66
2023/05/19 03:07:16;;;;;;;;;;;;;;;18.31;58.44;102396.97;1250798;23;1935;-66
2023/05/19 03:08:06;;;;;;;;;;;;;;;18.29;58.12;102390.81;1251156;23;785;-66
2023/05/19 03:08:57;;;;;;;;;;;;;;;18.30;58.94;102395.25;1250987;23;646;-66
2023/05/19 03:09:47;;;;;;;;;;;;;;;18.25;58.77;102394.75;1246775;23;615;-66
2023/05/19 03:10:38;;;;;;;;;;;;;;;18.25;59.01;102404.66;1251087;23;696;-66
2023/05/19 03:11:29;;;;;;;;;;;;;;;18.24;59.20;102393.00;1251235;23;618;-66
2023/05/19 03:12:20;;;;;;;;;;;;;;;18.23;58.42;102396.69;1250949;23;645;-67
2023/05/19 03:13:11;;;;;;;;;;;;;;;18.20;59.22;102388.81;1251125;23;657;-67
2023/05/19 03:14:01;;;;;;;;;;;;;;;18.21;59.41;102401.31;1250980;23;617;-67
2023/05/19 03:14:52;;;;;;;;;;;;;;;18.20;59.40;102399.59;1251141;23;646;-68
2023/05/19 03:15:42;;;;;;;;;;;;;;;18.17;59.58;102394.41;1250762;23;664;-67
2023/05/19 03:16:32;;;;;;;;;;;;;;;18.17;58.71;102388.16;1251257;23;681;-67
2023/05/19 03:17:23;;;;;;;;;;;;;;;18.17;59.14;102393.56;1251002;23;629;-67
2023/05/19 03:18:13;;;;;;;;;;;;;;;18.18;58.71;102388.06;1251179;23;610;-67
2023/05/19 03:19:04;;;;;;;;;;;;;;;18.18;58.81;102398.84;1250783;23;648;-67
2023/05/19 03:19:54;;;;;;;;;;;;;;;18.19;59.20;102395.19;1251077;23;645;-68
2023/05/19 03:20:45;;;;;;;;;;;;;;;18.20;59.20;102402.28;1251203;23;677;-67
2023/05/19 03:21:36;;;;;;;;;;;;;;;18.16;58.48;102392.69;1251109;23;606;-67
2023/05/19 03:22:26;;;;;;;;;;;;;;;18.15;58.84;102399.06;1249421;23;764;-67
2023/05/19 03:23:17;;;;;;;;;;;;;;;18.16;58.27;102397.22;1250855;23;657;-67
2023/05/19 03:24:07;;;;;;;;;;;;;;;18.17;58.48;102394.41;1250915;23;646;-67
2023/05/19 03:24:57;;;;;;;;;;;;;;;18.18;59.00;102395.28;1251117;23;606;-67
2023/05/19 03:25:48;;;;;;;;;;;;;;;18.19;59.24;102399.72;1250948;23;645;-67
2023/05/19 03:26:39;;;;;;;;;;;;;;;18.17;58.84;102402.50;1247260;23;643;-67
2023/05/19 03:27:29;;;;;;;;;;;;;;;18.18;59.21;102400.69;1249623;23;1889;-67
2023/05/19 03:28:20;;;;;;;;;;;;;;;18.18;58.52;102395.28;1247716;23;622;-67
2023/05/19 03:29:10;;;;;;;;;;;;;;;18.18;58.13;102397.97;1250891;23;613;-67
2023/05/19 03:30:00;;;;;;;;;;;;;;;18.18;59.08;102397.97;1251058;23;618;-67
2023/05/19 03:30:51;;;;;;;;;;;;;;;18.18;59.12;102401.53;1250703;23;638;-67
2023/05/19 03:31:41;;;;;;;;;;;;;;;18.18;59.02;102401.53;1246687;23;615;-66
2023/05/19 03:32:32;;;;;;;;;;;;;;;18.18;58.41;102392.59;1251011;23;622;-67
2023/05/19 03:33:23;;;;;;;;;;;;;;;18.16;58.95;102398.09;1251040;23;722;-67
2023/05/19 03:34:13;;;;;;;;;;;;;;;18.14;58.60;102389.25;1247152;23;627;-67
2023/05/19 03:35:04;;;;;;;;;;;;;;;18.13;58.84;102395.59;1251106;23;614;-67
2023/05/19 03:35:54;;;;;;;;;;;;;;;18.12;58.29;102387.63;1251114;23;661;-67
2023/05/19 03:36:45;;;;;;;;;;;;;;;18.11;59.17;102389.44;1250975;23;629;-67
2023/05/19 03:37:35;;;;;;;;;;;;;;;18.10;58.96;102387.72;1251024;23;671;-67
2023/05/19 03:38:26;;;;;;;;;;;;;;;18.12;58.63;102385.78;1251133;23;605;-67
2023/05/19 03:39:16;;;;;;;;;;;;;;;18.12;58.35;102385.78;1250834;23;665;-67
2023/05/19 03:40:07;;;;;;;;;;;;;;;18.10;58.55;102387.72;1251138;23;602;-67
2023/05/19 03:40:57;;;;;;;;;;;;;;;18.10;59.00;102386.88;1251101;23;621;-67
2023/05/19 03:41:48;;;;;;;;;;;;;;;18.06;59.11;102385.38;1250730;23;594;-67
2023/05/19 03:42:39;;;;;;;;;;;;;;;18.06;59.49;102380.84;1247461;23;634;-67
2023/05/19 03:43:29;;;;;;;;;;;;;;;18.06;59.24;102380.84;1247518;23;663;-67
2023/05/19 03:44:19;;;;;;;;;;;;;;;18.07;59.51;102393.38;1247653;23;639;-67
2023/05/19 03:45:10;;;;;;;;;;;;;;;18.08;59.21;102388.84;1250401;23;633;-67
2023/05/19 03:46:00;;;;;;;;;;;;;;;18.06;59.25;102386.25;1251179;23;638;-67
2023/05/19 03:46:51;;;;;;;;;;;;;;;18.04;59.17;102380.09;1250838;23;677;-67
2023/05/19 03:47:41;;;;;;;;;;;;;;;18.04;59.83;102388.19;1251164;23;626;-66
2023/05/19 03:48:32;;;;;;;;;;;;;;;18.03;59.49;102386.47;1250981;23;626;-68
2023/05/19 03:49:22;;;;;;;;;;;;;;;18.03;59.25;102383.75;1250974;23;1216;-68
2023/05/19 03:50:13;;;;;;;;;;;;;;;18.05;59.66;102389.91;1251107;23;665;-68
2023/05/19 03:51:03;;;;;;;;;;;;;;;18.06;59.75;102386.25;1250911;23;622;-68
2023/05/19 03:51:53;;;;;;;;;;;;;;;18.06;59.52;102388.09;1250983;23;638;-68
2023/05/19 03:52:45;;;;;;;;;;;;;;;18.06;59.47;102386.25;1250994;23;661;-68
2023/05/19 03:53:36;;;;;;;;;;;;;;;18.04;58.88;102386.34;1246631;23;611;-68
2023/05/19 03:54:27;;;;;;;;;;;;;;;18.01;59.96;102391.09;1246994;23;592;-68
2023/05/19 03:55:19;;;;;;;;;;;;;;;17.99;59.53;102387.66;1250879;23;609;-68
2023/05/19 03:56:12;;;;;;;;;;;;;;;17.98;59.63;102385.91;1250687;23;614;-68
2023/05/19 03:57:03;;;;;;;;;;;;;;;17.95;59.56;102381.59;1246656;23;662;-68
2023/05/19 03:57:54;;;;;;;;;;;;;;;17.94;59.11;102387.09;1251014;23;669;-68
2023/05/19 03:58:45;;;;;;;;;;;;;;;17.95;59.73;102388.84;1247126;23;608;-68
2023/05/19 03:59:36;;;;;;;;;;;;;;;17.90;59.92;102382.94;1250397;23;645;-68
2023/05/19 04:00:26;;;;;;;;;;;;;;;17.92;59.99;102384.50;1251097;23;665;-68
2023/05/19 04:01:17;;;;;;;;;;;;;;;17.93;60.41;102380.84;1251032;23;653;-68
2023/05/19 04:02:07;;;;;;;;;;;;;;;17.93;59.99;102385.38;1250744;23;614;-68
2023/05/19 04:02:58;;;;;;;;;;;;;;;17.90;59.74;102386.50;1250978;23;653;-68
2023/05/19 04:03:49;;;;;;;;;;;;;;;17.92;59.66;102391.75;1251017;23;606;-68
2023/05/19 04:04:40;;;;;;;;;;;;;;;17.94;60.15;102387.97;1251120;23;661;-68
2023/05/19 04:05:30;;;;;;;;;;;;;;;17.94;59.96;102393.38;1247459;23;646;-68
2023/05/19 04:06:21;;;;;;;;;;;;;;;17.95;59.61;102386.13;1247088;23;666;-68
2023/05/19 04:07:11;;;;;;;;;;;;;;;17.93;59.67;102380.84;1249366;23;1905;-67
2023/05/19 04:08:01;;;;;;;;;;;;;;;17.89;59.32;102384.75;1246724;23;612;-68
2023/05/19 04:08:52;;;;;;;;;;;;;;;17.88;59.73;102384.88;1250959;23;687;-68
2023/05/19 04:09:42;;;;;;;;;;;;;;;17.90;60.29;102389.19;1249266;23;673;-68
2023/05/19 04:10:33;;;;;;;;;;;;;;;17.89;60.63;102386.59;1250981;23;653;-68
2023/05/19 04:11:23;;;;;;;;;;;;;;;17.87;59.91;102385.84;1250712;23;625;-68
2023/05/19 04:12:14;;;;;;;;;;;;;;;17.88;60.04;102384.88;1250994;23;646;-68
2023/05/19 04:13:04;;;;;;;;;;;;;;;17.90;59.12;102385.63;1250896;23;642;-68
2023/05/19 04:13:54;;;;;;;;;;;;;;;17.89;59.19;102386.59;1250526;23;602;-68
2023/05/19 04:14:45;;;;;;;;;;;;;;;17.89;58.81;102389.28;1246979;23;713;-68
2023/05/19 04:15:35;;;;;;;;;;;;;;;17.88;59.41;102384.88;1251192;23;642;-67
2023/05/19 04:16:26;;;;;;;;;;;;;;;17.90;59.01;102388.31;1249276;23;579;-67
2023/05/19 04:17:16;;;;;;;;;;;;;;;17.88;59.39;102387.56;1247185;23;634;-67
2023/05/19 04:18:07;;;;;;;;;;;;;;;17.85;58.80;102393.16;1251082;23;653;-67
2023/05/19 04:18:57;;;;;;;;;;;;;;;17.84;59.13;102386.91;1250865;23;661;-67
2023/05/19 04:19:47;;;;;;;;;;;;;;;17.83;59.41;102387.03;1251041;23;594;-67
2023/05/19 04:20:38;;;;;;;;;;;;;;;17.85;58.88;102385.06;1247065;23;614;-68
2023/05/19 04:21:28;;;;;;;;;;;;;;;17.86;59.26;102386.81;1246720;23;702;-68
2023/05/19 04:22:19;;;;;;;;;;;;;;;17.85;59.29;102391.34;1250917;23;621;-68
2023/05/19 04:23:09;;;;;;;;;;;;;;;17.84;58.94;102389.63;1250957;23;642;-68
2023/05/19 04:24:00;;;;;;;;;;;;;;;17.81;59.22;102388.97;1250909;23;645;-67
2023/05/19 04:24:51;;;;;;;;;;;;;;;17.82;58.89;102394.25;1251058;23;610;-68
2023/05/19 04:25:42;;;;;;;;;;;;;;;17.78;58.66;102400.81;1250993;23;657;-67
2023/05/19 04:26:33;;;;;;;;;;;;;;;17.77;58.94;102388.31;1250894;23;654;-68
2023/05/19 04:27:24;;;;;;;;;;;;;;;17.79;58.49;102391.75;1250667;23;1885;-67